Terminal Aerodrome Forecast
Issued by NWS

Home | Current Version | Previous Version | Text Only | Print | Product List | Glossary On
Versions: 1 2 3 4 5 6 7 8 9 10 11 12 13 14 15 16 17 18 19 20 21 22 23
000
FTUS41 KPBZ 272300
TAFHLG
TAF
KHLG 272320Z 2800/2824 28004KT P6SM VCSH SCT030 BKN045
     FM280200 28010G18KT 4SM TSRA BKN020CB
     FM280330 28010KT 5SM BR SCT050
     FM280600 29005KT 5SM BR BKN015
     FM280900 30009KT 4SM BR OVC007
     FM281500 31013KT P6SM VCSH BKN025=

USA.gov is the U.S. government's official web portal to all federal, state and local government web resources and services.